sensor_id;sensor_type;location;lat;lon;timestamp;pressure;altitude;pressure_sealevel;temperature;humidity
80118;BME280;69424;48.770;-1.564;2023-07-24T00:00:18;100638.73;;;18.10;78.09
80118;BME280;69424;48.770;-1.564;2023-07-24T00:01:11;100634.07;;;18.11;78.09
80118;BME280;69424;48.770;-1.564;2023-07-24T00:01:44;100633.35;;;18.11;78.08
80118;BME280;69424;48.770;-1.564;2023-07-24T00:02:17;100633.48;;;18.12;77.83
80118;BME280;69424;48.770;-1.564;2023-07-24T00:02:50;100639.93;;;18.12;77.80
80118;BME280;69424;48.770;-1.564;2023-07-24T00:03:23;100635.46;;;18.12;77.96
80118;BME280;69424;48.770;-1.564;2023-07-24T00:03:56;100633.27;;;18.13;78.07
80118;BME280;69424;48.770;-1.564;2023-07-24T00:04:32;100634.88;;;18.14;78.01
80118;BME280;69424;48.770;-1.564;2023-07-24T00:05:06;100633.06;;;18.16;77.87
80118;BME280;69424;48.770;-1.564;2023-07-24T00:05:39;100636.80;;;18.17;77.84
80118;BME280;69424;48.770;-1.564;2023-07-24T00:06:12;100634.43;;;18.18;77.80
80118;BME280;69424;48.770;-1.564;2023-07-24T00:06:45;100632.07;;;18.19;77.81
80118;BME280;69424;48.770;-1.564;2023-07-24T00:07:18;100629.38;;;18.20;77.63
80118;BME280;69424;48.770;-1.564;2023-07-24T00:07:51;100627.19;;;18.21;77.60
80118;BME280;69424;48.770;-1.564;2023-07-24T00:08:24;100630.05;;;18.22;77.56
80118;BME280;69424;48.770;-1.564;2023-07-24T00:08:57;100626.84;;;18.21;77.45
80118;BME280;69424;48.770;-1.564;2023-07-24T00:09:29;100627.55;;;18.21;77.51
80118;BME280;69424;48.770;-1.564;2023-07-24T00:10:03;100627.57;;;18.21;77.36
80118;BME280;69424;48.770;-1.564;2023-07-24T00:10:36;100624.02;;;18.19;77.27
80118;BME280;69424;48.770;-1.564;2023-07-24T00:11:09;100624.95;;;18.18;77.34
80118;BME280;69424;48.770;-1.564;2023-07-24T00:11:42;100624.98;;;18.17;77.52
80118;BME280;69424;48.770;-1.564;2023-07-24T00:12:15;100623.20;;;18.16;77.60
80118;BME280;69424;48.770;-1.564;2023-07-24T00:12:48;100620.19;;;18.15;77.83
80118;BME280;69424;48.770;-1.564;2023-07-24T00:13:21;100621.25;;;18.15;77.97
80118;BME280;69424;48.770;-1.564;2023-07-24T00:13:54;100623.23;;;18.14;77.91
80118;BME280;69424;48.770;-1.564;2023-07-24T00:14:27;100620.73;;;18.14;78.07
80118;BME280;69424;48.770;-1.564;2023-07-24T00:15:00;100619.10;;;18.16;77.94
80118;BME280;69424;48.770;-1.564;2023-07-24T00:15:33;100618.74;;;18.16;77.86
80118;BME280;69424;48.770;-1.564;2023-07-24T00:16:07;100618.36;;;18.16;77.75
80118;BME280;69424;48.770;-1.564;2023-07-24T00:16:40;100619.98;;;18.16;77.85
80118;BME280;69424;48.770;-1.564;2023-07-24T00:17:13;100618.73;;;18.17;77.82
80118;BME280;69424;48.770;-1.564;2023-07-24T00:17:46;100616.39;;;18.17;77.81
80118;BME280;69424;48.770;-1.564;2023-07-24T00:18:19;100614.38;;;18.18;77.78
80118;BME280;69424;48.770;-1.564;2023-07-24T00:18:52;100615.27;;;18.19;77.76
80118;BME280;69424;48.770;-1.564;2023-07-24T00:19:25;100612.02;;;18.20;77.70
80118;BME280;69424;48.770;-1.564;2023-07-24T00:19:58;100616.48;;;18.20;77.64
80118;BME280;69424;48.770;-1.564;2023-07-24T00:20:31;100614.33;;;18.20;77.62
80118;BME280;69424;48.770;-1.564;2023-07-24T00:21:04;100616.85;;;18.20;77.57
80118;BME280;69424;48.770;-1.564;2023-07-24T00:21:36;100618.30;;;18.19;77.56
80118;BME280;69424;48.770;-1.564;2023-07-24T00:22:09;100618.85;;;18.18;77.48
80118;BME280;69424;48.770;-1.564;2023-07-24T00:22:42;100619.45;;;18.16;77.65
80118;BME280;69424;48.770;-1.564;2023-07-24T00:23:15;100624.52;;;18.14;77.73
80118;BME280;69424;48.770;-1.564;2023-07-24T00:23:48;100622.40;;;18.12;77.77
80118;BME280;69424;48.770;-1.564;2023-07-24T00:24:21;100625.64;;;18.11;77.82
80118;BME280;69424;48.770;-1.564;2023-07-24T00:24:54;100625.88;;;18.08;77.91
80118;BME280;69424;48.770;-1.564;2023-07-24T00:25:27;100623.81;;;18.06;78.05
80118;BME280;69424;48.770;-1.564;2023-07-24T00:26:00;100624.91;;;18.05;78.26
80118;BME280;69424;48.770;-1.564;2023-07-24T00:26:33;100627.63;;;18.03;78.54
80118;BME280;69424;48.770;-1.564;2023-07-24T00:27:07;100626.93;;;18.02;78.71
80118;BME280;69424;48.770;-1.564;2023-07-24T00:27:40;100626.23;;;18.02;78.77
80118;BME280;69424;48.770;-1.564;2023-07-24T00:28:13;100624.27;;;18.02;78.85
80118;BME280;69424;48.770;-1.564;2023-07-24T00:28:46;100627.66;;;18.02;78.87
80118;BME280;69424;48.770;-1.564;2023-07-24T00:29:19;100621.39;;;18.02;78.90
80118;BME280;69424;48.770;-1.564;2023-07-24T00:29:52;100624.98;;;18.01;78.78
80118;BME280;69424;48.770;-1.564;2023-07-24T00:30:26;100625.33;;;18.02;78.82
80118;BME280;69424;48.770;-1.564;2023-07-24T00:30:59;100625.84;;;18.02;78.75
80118;BME280;69424;48.770;-1.564;2023-07-24T00:31:32;100629.25;;;18.03;78.77
80118;BME280;69424;48.770;-1.564;2023-07-24T00:32:05;100626.39;;;18.03;78.61
80118;BME280;69424;48.770;-1.564;2023-07-24T00:32:40;100623.34;;;18.03;78.50
80118;BME280;69424;48.770;-1.564;2023-07-24T00:33:13;100625.85;;;18.02;78.42
80118;BME280;69424;48.770;-1.564;2023-07-24T00:33:46;100623.72;;;18.02;78.38
80118;BME280;69424;48.770;-1.564;2023-07-24T00:34:19;100622.13;;;18.01;78.24
80118;BME280;69424;48.770;-1.564;2023-07-24T00:34:53;100620.05;;;17.99;78.24
80118;BME280;69424;48.770;-1.564;2023-07-24T00:35:25;100618.27;;;17.98;78.46
80118;BME280;69424;48.770;-1.564;2023-07-24T00:35:59;100622.73;;;17.98;78.49
80118;BME280;69424;48.770;-1.564;2023-07-24T00:36:32;100613.44;;;17.98;78.70
80118;BME280;69424;48.770;-1.564;2023-07-24T00:37:06;100615.05;;;17.98;78.61
80118;BME280;69424;48.770;-1.564;2023-07-24T00:37:39;100612.70;;;17.99;78.71
80118;BME280;69424;48.770;-1.564;2023-07-24T00:38:12;100617.14;;;18.00;78.50
80118;BME280;69424;48.770;-1.564;2023-07-24T00:38:46;100617.30;;;18.01;78.38
80118;BME280;69424;48.770;-1.564;2023-07-24T00:39:20;100613.54;;;18.01;78.11
80118;BME280;69424;48.770;-1.564;2023-07-24T00:39:52;100614.64;;;18.00;77.98
80118;BME280;69424;48.770;-1.564;2023-07-24T00:40:25;100612.54;;;17.98;78.03
80118;BME280;69424;48.770;-1.564;2023-07-24T00:40:58;100612.02;;;17.98;78.27
80118;BME280;69424;48.770;-1.564;2023-07-24T00:41:32;100612.20;;;17.97;78.31
80118;BME280;69424;48.770;-1.564;2023-07-24T00:42:05;100611.30;;;17.97;78.38
80118;BME280;69424;48.770;-1.564;2023-07-24T00:42:38;100615.25;;;17.97;78.33
80118;BME280;69424;48.770;-1.564;2023-07-24T00:43:12;100611.69;;;17.96;78.24
80118;BME280;69424;48.770;-1.564;2023-07-24T00:43:45;100608.83;;;17.97;78.24
80118;BME280;69424;48.770;-1.564;2023-07-24T00:44:18;100608.45;;;17.97;78.12
80118;BME280;69424;48.770;-1.564;2023-07-24T00:44:52;100605.77;;;17.97;78.14
80118;BME280;69424;48.770;-1.564;2023-07-24T00:45:25;100605.92;;;17.98;78.16
80118;BME280;69424;48.770;-1.564;2023-07-24T00:45:58;100606.80;;;17.99;78.25
80118;BME280;69424;48.770;-1.564;2023-07-24T00:46:32;100605.36;;;17.99;78.38
80118;BME280;69424;48.770;-1.564;2023-07-24T00:47:06;100609.58;;;18.01;78.51
80118;BME280;69424;48.770;-1.564;2023-07-24T00:47:39;100608.50;;;18.03;78.57
80118;BME280;69424;48.770;-1.564;2023-07-24T00:48:12;100605.23;;;18.04;78.48
80118;BME280;69424;48.770;-1.564;2023-07-24T00:48:45;100603.97;;;18.05;78.61
80118;BME280;69424;48.770;-1.564;2023-07-24T00:49:19;100604.84;;;18.06;78.73
80118;BME280;69424;48.770;-1.564;2023-07-24T00:49:53;100600.16;;;18.07;78.69
80118;BME280;69424;48.770;-1.564;2023-07-24T00:50:27;100605.84;;;18.08;78.74
80118;BME280;69424;48.770;-1.564;2023-07-24T00:51:01;100604.00;;;18.10;78.60
80118;BME280;69424;48.770;-1.564;2023-07-24T00:51:34;100603.09;;;18.12;78.68
80118;BME280;69424;48.770;-1.564;2023-07-24T00:52:08;100601.77;;;18.13;78.70
80118;BME280;69424;48.770;-1.564;2023-07-24T00:52:41;100599.59;;;18.16;78.73
80118;BME280;69424;48.770;-1.564;2023-07-24T00:53:17;100602.92;;;18.18;78.67
80118;BME280;69424;48.770;-1.564;2023-07-24T00:53:51;100599.45;;;18.21;78.58
80118;BME280;69424;48.770;-1.564;2023-07-24T00:54:26;100598.14;;;18.24;78.55
80118;BME280;69424;48.770;-1.564;2023-07-24T00:55:04;100599.67;;;18.27;78.54
80118;BME280;69424;48.770;-1.564;2023-07-24T00:55:39;100591.38;;;18.28;78.51
80118;BME280;69424;48.770;-1.564;2023-07-24T00:56:12;100595.44;;;18.31;78.33
80118;BME280;69424;48.770;-1.564;2023-07-24T00:56:46;100597.69;;;18.35;78.38
80118;BME280;69424;48.770;-1.564;2023-07-24T00:57:19;100593.36;;;18.36;78.37
80118;BME280;69424;48.770;-1.564;2023-07-24T00:57:52;100594.37;;;18.38;78.25
80118;BME280;69424;48.770;-1.564;2023-07-24T00:58:26;100595.58;;;18.40;78.28
80118;BME280;69424;48.770;-1.564;2023-07-24T00:59:02;100593.20;;;18.42;78.18
80118;BME280;69424;48.770;-1.564;2023-07-24T00:59:35;100592.27;;;18.43;78.03
80118;BME280;69424;48.770;-1.564;2023-07-24T01:00:09;100593.67;;;18.44;77.87
80118;BME280;69424;48.770;-1.564;2023-07-24T01:00:43;100595.64;;;18.45;77.97
80118;BME280;69424;48.770;-1.564;2023-07-24T01:01:17;100593.64;;;18.46;77.99
80118;BME280;69424;48.770;-1.564;2023-07-24T01:01:51;100593.09;;;18.47;77.93
80118;BME280;69424;48.770;-1.564;2023-07-24T01:02:25;100595.02;;;18.48;78.01
80118;BME280;69424;48.770;-1.564;2023-07-24T01:02:59;100592.30;;;18.48;77.93
80118;BME280;69424;48.770;-1.564;2023-07-24T01:03:34;100596.05;;;18.49;77.96
80118;BME280;69424;48.770;-1.564;2023-07-24T01:04:09;100596.03;;;18.50;77.88
80118;BME280;69424;48.770;-1.564;2023-07-24T01:04:41;100592.77;;;18.51;77.83
80118;BME280;69424;48.770;-1.564;2023-07-24T01:05:16;100593.13;;;18.52;77.64
80118;BME280;69424;48.770;-1.564;2023-07-24T01:05:49;100595.26;;;18.53;77.78
80118;BME280;69424;48.770;-1.564;2023-07-24T01:06:23;100595.45;;;18.52;77.79
80118;BME280;69424;48.770;-1.564;2023-07-24T01:06:56;100593.30;;;18.52;77.69
80118;BME280;69424;48.770;-1.564;2023-07-24T01:07:29;100592.92;;;18.53;77.60
80118;BME280;69424;48.770;-1.564;2023-07-24T01:08:02;100594.53;;;18.53;77.49
80118;BME280;69424;48.770;-1.564;2023-07-24T01:08:36;100591.47;;;18.54;77.28
80118;BME280;69424;48.770;-1.564;2023-07-24T01:09:09;100592.39;;;18.53;77.47
80118;BME280;69424;48.770;-1.564;2023-07-24T01:09:43;100591.84;;;18.53;77.60
80118;BME280;69424;48.770;-1.564;2023-07-24T01:10:16;100589.50;;;18.54;77.83
80118;BME280;69424;48.770;-1.564;2023-07-24T01:10:50;100585.58;;;18.53;77.82
80118;BME280;69424;48.770;-1.564;2023-07-24T01:11:47;100587.33;;;18.54;77.84
80118;BME280;69424;48.770;-1.564;2023-07-24T01:12:31;100586.27;;;18.54;77.76
80118;BME280;69424;48.770;-1.564;2023-07-24T01:13:15;100583.77;;;18.54;77.77
80118;BME280;69424;48.770;-1.564;2023-07-24T01:14:52;100588.25;;;18.54;77.66
80118;BME280;69424;48.770;-1.564;2023-07-24T01:15:50;100589.02;;;18.51;77.58
80118;BME280;69424;48.770;-1.564;2023-07-24T01:16:31;100582.46;;;18.48;77.73
80118;BME280;69424;48.770;-1.564;2023-07-24T01:17:07;100583.42;;;18.46;78.02
80118;BME280;69424;48.770;-1.564;2023-07-24T01:17:50;100581.13;;;18.45;77.79
80118;BME280;69424;48.770;-1.564;2023-07-24T01:18:28;100579.38;;;18.44;77.80
80118;BME280;69424;48.770;-1.564;2023-07-24T01:19:11;100582.80;;;18.42;77.77
80118;BME280;69424;48.770;-1.564;2023-07-24T01:19:49;100576.77;;;18.40;77.75
80118;BME280;69424;48.770;-1.564;2023-07-24T01:20:27;100577.87;;;18.39;77.69
80118;BME280;69424;48.770;-1.564;2023-07-24T01:21:01;100575.95;;;18.37;77.57
80118;BME280;69424;48.770;-1.564;2023-07-24T01:21:44;100578.16;;;18.36;77.53
80118;BME280;69424;48.770;-1.564;2023-07-24T01:24:29;100577.86;;;18.27;77.71
80118;BME280;69424;48.770;-1.564;2023-07-24T01:25:59;100577.09;;;18.21;77.90
80118;BME280;69424;48.770;-1.564;2023-07-24T01:26:32;100575.17;;;18.19;77.91
80118;BME280;69424;48.770;-1.564;2023-07-24T01:27:07;100572.54;;;18.17;77.93
80118;BME280;69424;48.770;-1.564;2023-07-24T01:27:42;100573.42;;;18.17;78.08
80118;BME280;69424;48.770;-1.564;2023-07-24T01:28:15;100571.30;;;18.16;78.05
80118;BME280;69424;48.770;-1.564;2023-07-24T01:28:48;100571.64;;;18.17;78.12
80118;BME280;69424;48.770;-1.564;2023-07-24T01:29:21;100574.66;;;18.18;78.19
80118;BME280;69424;48.770;-1.564;2023-07-24T01:29:54;100574.30;;;18.18;78.25
80118;BME280;69424;48.770;-1.564;2023-07-24T01:30:27;100573.20;;;18.19;78.32
80118;BME280;69424;48.770;-1.564;2023-07-24T01:31:00;100572.65;;;18.19;78.37
80118;BME280;69424;48.770;-1.564;2023-07-24T01:31:33;100576.39;;;18.20;78.26
80118;BME280;69424;48.770;-1.564;2023-07-24T01:32:06;100569.23;;;18.20;78.26
80118;BME280;69424;48.770;-1.564;2023-07-24T01:32:39;100574.58;;;18.21;78.36
80118;BME280;69424;48.770;-1.564;2023-07-24T01:33:14;100571.69;;;18.22;78.15
80118;BME280;69424;48.770;-1.564;2023-07-24T01:33:47;100571.68;;;18.22;78.14
80118;BME280;69424;48.770;-1.564;2023-07-24T01:34:23;100574.33;;;18.23;78.11
80118;BME280;69424;48.770;-1.564;2023-07-24T01:34:56;100574.31;;;18.24;78.10
80118;BME280;69424;48.770;-1.564;2023-07-24T01:35:29;100573.60;;;18.24;78.15
80118;BME280;69424;48.770;-1.564;2023-07-24T01:36:04;100576.48;;;18.24;78.08
80118;BME280;69424;48.770;-1.564;2023-07-24T01:36:38;100570.04;;;18.24;78.05
80118;BME280;69424;48.770;-1.564;2023-07-24T01:37:12;100572.90;;;18.24;77.92
80118;BME280;69424;48.770;-1.564;2023-07-24T01:37:46;100572.02;;;18.23;77.86
80118;BME280;69424;48.770;-1.564;2023-07-24T01:38:21;100572.73;;;18.23;77.99
80118;BME280;69424;48.770;-1.564;2023-07-24T01:38:54;100572.54;;;18.23;77.96
80118;BME280;69424;48.770;-1.564;2023-07-24T01:39:28;100572.38;;;18.23;77.73
80118;BME280;69424;48.770;-1.564;2023-07-24T01:40:02;100569.35;;;18.22;77.78
80118;BME280;69424;48.770;-1.564;2023-07-24T01:40:35;100572.06;;;18.21;77.69
80118;BME280;69424;48.770;-1.564;2023-07-24T01:41:08;100567.08;;;18.21;77.81
80118;BME280;69424;48.770;-1.564;2023-07-24T01:41:43;100573.52;;;18.20;77.94
80118;BME280;69424;48.770;-1.564;2023-07-24T01:42:16;100573.34;;;18.20;77.99
80118;BME280;69424;48.770;-1.564;2023-07-24T01:42:49;100571.22;;;18.19;77.84
80118;BME280;69424;48.770;-1.564;2023-07-24T01:43:24;100569.98;;;18.19;77.85
80118;BME280;69424;48.770;-1.564;2023-07-24T01:44:00;100570.34;;;18.18;77.78
80118;BME280;69424;48.770;-1.564;2023-07-24T01:44:33;100569.09;;;18.18;77.77
80118;BME280;69424;48.770;-1.564;2023-07-24T01:45:06;100569.15;;;18.16;77.58
80118;BME280;69424;48.770;-1.564;2023-07-24T01:45:39;100568.48;;;18.14;77.46
80118;BME280;69424;48.770;-1.564;2023-07-24T01:46:12;100569.94;;;18.13;77.35
80118;BME280;69424;48.770;-1.564;2023-07-24T01:46:45;100578.42;;;18.10;77.37
80118;BME280;69424;48.770;-1.564;2023-07-24T01:47:19;100572.41;;;18.08;77.44
80118;BME280;69424;48.770;-1.564;2023-07-24T01:47:52;100575.84;;;18.05;77.37
80118;BME280;69424;48.770;-1.564;2023-07-24T01:48:25;100574.30;;;18.04;77.51
80118;BME280;69424;48.770;-1.564;2023-07-24T01:48:59;100573.26;;;18.02;77.52
80118;BME280;69424;48.770;-1.564;2023-07-24T01:49:32;100573.13;;;18.00;77.62
80118;BME280;69424;48.770;-1.564;2023-07-24T01:50:06;100573.70;;;17.99;77.79
80118;BME280;69424;48.770;-1.564;2023-07-24T01:50:39;100576.58;;;17.98;77.88
80118;BME280;69424;48.770;-1.564;2023-07-24T01:51:12;100573.73;;;17.97;77.95
80118;BME280;69424;48.770;-1.564;2023-07-24T01:51:45;100569.27;;;17.97;77.89
80118;BME280;69424;48.770;-1.564;2023-07-24T01:52:18;100571.41;;;17.97;77.86
80118;BME280;69424;48.770;-1.564;2023-07-24T01:52:51;100570.71;;;17.97;77.90
80118;BME280;69424;48.770;-1.564;2023-07-24T01:53:24;100571.60;;;17.96;77.93
80118;BME280;69424;48.770;-1.564;2023-07-24T01:53:57;100571.60;;;17.96;77.72
80118;BME280;69424;48.770;-1.564;2023-07-24T01:54:30;100567.18;;;17.94;77.70
80118;BME280;69424;48.770;-1.564;2023-07-24T01:55:03;100571.15;;;17.93;77.74
80118;BME280;69424;48.770;-1.564;2023-07-24T01:55:36;100567.79;;;17.91;77.92
80118;BME280;69424;48.770;-1.564;2023-07-24T01:56:09;100565.68;;;17.90;77.96
80118;BME280;69424;48.770;-1.564;2023-07-24T01:56:42;100566.42;;;17.88;78.17
80118;BME280;69424;48.770;-1.564;2023-07-24T01:57:16;100563.42;;;17.86;78.21
80118;BME280;69424;48.770;-1.564;2023-07-24T01:57:49;100567.59;;;17.83;78.40
80118;BME280;69424;48.770;-1.564;2023-07-24T01:58:22;100566.52;;;17.82;78.37
80118;BME280;69424;48.770;-1.564;2023-07-24T01:58:55;100568.40;;;17.79;78.46
80118;BME280;69424;48.770;-1.564;2023-07-24T01:59:28;100568.28;;;17.77;78.54
80118;BME280;69424;48.770;-1.564;2023-07-24T02:00:02;100569.90;;;17.76;78.59
80118;BME280;69424;48.770;-1.564;2023-07-24T02:00:35;100566.54;;;17.74;78.60
80118;BME280;69424;48.770;-1.564;2023-07-24T02:01:08;100565.33;;;17.73;78.47
80118;BME280;69424;48.770;-1.564;2023-07-24T02:01:41;100566.40;;;17.73;78.28
80118;BME280;69424;48.770;-1.564;2023-07-24T02:02:15;100565.87;;;17.72;78.33
80118;BME280;69424;48.770;-1.564;2023-07-24T02:02:48;100561.77;;;17.72;78.49
80118;BME280;69424;48.770;-1.564;2023-07-24T02:03:21;100563.21;;;17.71;78.58
80118;BME280;69424;48.770;-1.564;2023-07-24T02:03:55;100560.56;;;17.71;78.58
80118;BME280;69424;48.770;-1.564;2023-07-24T02:04:27;100561.77;;;17.72;78.73
80118;BME280;69424;48.770;-1.564;2023-07-24T02:05:00;100561.59;;;17.72;78.69
80118;BME280;69424;48.770;-1.564;2023-07-24T02:05:34;100565.54;;;17.72;78.83
80118;BME280;69424;48.770;-1.564;2023-07-24T02:06:07;100564.64;;;17.71;79.04
80118;BME280;69424;48.770;-1.564;2023-07-24T02:06:40;100565.73;;;17.71;79.41
80118;BME280;69424;48.770;-1.564;2023-07-24T02:07:13;100566.63;;;17.71;79.47
80118;BME280;69424;48.770;-1.564;2023-07-24T02:07:46;100564.33;;;17.70;79.63
80118;BME280;69424;48.770;-1.564;2023-07-24T02:08:19;100563.27;;;17.69;79.51
80118;BME280;69424;48.770;-1.564;2023-07-24T02:08:52;100562.02;;;17.69;79.63
80118;BME280;69424;48.770;-1.564;2023-07-24T02:09:24;100563.98;;;17.69;79.66
80118;BME280;69424;48.770;-1.564;2023-07-24T02:09:57;100565.79;;;17.68;79.24
80118;BME280;69424;48.770;-1.564;2023-07-24T02:10:30;100564.41;;;17.67;79.21
80118;BME280;69424;48.770;-1.564;2023-07-24T02:11:03;100563.70;;;17.65;78.88
80118;BME280;69424;48.770;-1.564;2023-07-24T02:11:37;100565.53;;;17.64;78.76
80118;BME280;69424;48.770;-1.564;2023-07-24T02:12:10;100561.44;;;17.63;78.50
80118;BME280;69424;48.770;-1.564;2023-07-24T02:12:43;100562.71;;;17.62;78.45
80118;BME280;69424;48.770;-1.564;2023-07-24T02:13:16;100561.14;;;17.61;78.45
80118;BME280;69424;48.770;-1.564;2023-07-24T02:13:53;100559.54;;;17.60;78.39
80118;BME280;69424;48.770;-1.564;2023-07-24T02:14:26;100560.98;;;17.59;78.46
80118;BME280;69424;48.770;-1.564;2023-07-24T02:14:59;100558.14;;;17.59;78.54
80118;BME280;69424;48.770;-1.564;2023-07-24T02:15:33;100559.92;;;17.59;78.63
80118;BME280;69424;48.770;-1.564;2023-07-24T02:16:06;100560.09;;;17.59;78.54
80118;BME280;69424;48.770;-1.564;2023-07-24T02:16:40;100557.77;;;17.59;78.62
80118;BME280;69424;48.770;-1.564;2023-07-24T02:17:13;100559.92;;;17.59;78.70
80118;BME280;69424;48.770;-1.564;2023-07-24T02:17:46;100561.20;;;17.58;78.62
80118;BME280;69424;48.770;-1.564;2023-07-24T02:18:19;100563.00;;;17.57;78.45
80118;BME280;69424;48.770;-1.564;2023-07-24T02:18:52;100562.85;;;17.56;78.47
80118;BME280;69424;48.770;-1.564;2023-07-24T02:19:25;100563.92;;;17.55;78.59
80118;BME280;69424;48.770;-1.564;2023-07-24T02:19:58;100561.64;;;17.54;78.81
80118;BME280;69424;48.770;-1.564;2023-07-24T02:20:32;100561.30;;;17.54;78.84
80118;BME280;69424;48.770;-1.564;2023-07-24T02:21:05;100561.30;;;17.53;78.81
80118;BME280;69424;48.770;-1.564;2023-07-24T02:21:38;100563.81;;;17.53;78.77
80118;BME280;69424;48.770;-1.564;2023-07-24T02:22:15;100561.52;;;17.52;78.60
80118;BME280;69424;48.770;-1.564;2023-07-24T02:22:48;100559.02;;;17.51;78.71
80118;BME280;69424;48.770;-1.564;2023-07-24T02:23:21;100557.73;;;17.52;78.84
80118;BME280;69424;48.770;-1.564;2023-07-24T02:23:54;100557.59;;;17.51;78.76
80118;BME280;69424;48.770;-1.564;2023-07-24T02:24:27;100559.36;;;17.52;78.69
80118;BME280;69424;48.770;-1.564;2023-07-24T02:25:00;100563.14;;;17.51;78.73
80118;BME280;69424;48.770;-1.564;2023-07-24T02:25:35;100566.20;;;17.50;78.66
80118;BME280;69424;48.770;-1.564;2023-07-24T02:26:08;100563.89;;;17.50;78.54
80118;BME280;69424;48.770;-1.564;2023-07-24T02:26:41;100565.33;;;17.50;78.76
80118;BME280;69424;48.770;-1.564;2023-07-24T02:27:24;100569.62;;;17.49;78.64
80118;BME280;69424;48.770;-1.564;2023-07-24T02:27:57;100567.68;;;17.48;78.52
80118;BME280;69424;48.770;-1.564;2023-07-24T02:28:30;100569.13;;;17.47;78.46
80118;BME280;69424;48.770;-1.564;2023-07-24T02:29:03;100569.33;;;17.46;78.66
80118;BME280;69424;48.770;-1.564;2023-07-24T02:29:36;100569.35;;;17.45;78.66
80118;BME280;69424;48.770;-1.564;2023-07-24T02:30:09;100565.60;;;17.45;78.73
80118;BME280;69424;48.770;-1.564;2023-07-24T02:30:43;100568.67;;;17.43;78.64
80118;BME280;69424;48.770;-1.564;2023-07-24T02:31:15;100567.62;;;17.42;78.81
80118;BME280;69424;48.770;-1.564;2023-07-24T02:31:50;100564.79;;;17.41;78.82
80118;BME280;69424;48.770;-1.564;2023-07-24T02:32:23;100563.90;;;17.41;78.69
80118;BME280;69424;48.770;-1.564;2023-07-24T02:32:56;100564.09;;;17.40;78.66
80118;BME280;69424;48.770;-1.564;2023-07-24T02:33:30;100564.68;;;17.38;78.45
80118;BME280;69424;48.770;-1.564;2023-07-24T02:34:02;100562.55;;;17.37;78.58
80118;BME280;69424;48.770;-1.564;2023-07-24T02:34:35;100565.26;;;17.36;78.58
80118;BME280;69424;48.770;-1.564;2023-07-24T02:35:08;100567.06;;;17.35;78.64
80118;BME280;69424;48.770;-1.564;2023-07-24T02:35:41;100564.44;;;17.32;78.54
80118;BME280;69424;48.770;-1.564;2023-07-24T02:36:15;100566.61;;;17.32;78.67
80118;BME280;69424;48.770;-1.564;2023-07-24T02:36:48;100568.77;;;17.31;78.63
80118;BME280;69424;48.770;-1.564;2023-07-24T02:37:21;100565.74;;;17.30;78.47
80118;BME280;69424;48.770;-1.564;2023-07-24T02:37:54;100568.06;;;17.30;78.44
80118;BME280;69424;48.770;-1.564;2023-07-24T02:38:27;100569.15;;;17.30;78.53
80118;BME280;69424;48.770;-1.564;2023-07-24T02:39:00;100569.70;;;17.29;78.28
80118;BME280;69424;48.770;-1.564;2023-07-24T02:39:33;100570.78;;;17.29;78.00
80118;BME280;69424;48.770;-1.564;2023-07-24T02:40:06;100570.27;;;17.29;78.03
80118;BME280;69424;48.770;-1.564;2023-07-24T02:40:40;100567.23;;;17.28;77.53
80118;BME280;69424;48.770;-1.564;2023-07-24T02:41:14;100568.48;;;17.28;77.27
80118;BME280;69424;48.770;-1.564;2023-07-24T02:41:47;100567.77;;;17.27;77.35
80118;BME280;69424;48.770;-1.564;2023-07-24T02:42:22;100567.43;;;17.27;77.44
80118;BME280;69424;48.770;-1.564;2023-07-24T02:42:56;100567.80;;;17.26;77.67
80118;BME280;69424;48.770;-1.564;2023-07-24T02:43:28;100567.79;;;17.26;77.83
80118;BME280;69424;48.770;-1.564;2023-07-24T02:44:02;100567.62;;;17.26;77.60
80118;BME280;69424;48.770;-1.564;2023-07-24T02:44:36;100569.08;;;17.25;77.50
80118;BME280;69424;48.770;-1.564;2023-07-24T02:45:09;100567.67;;;17.23;77.46
80118;BME280;69424;48.770;-1.564;2023-07-24T02:45:43;100566.64;;;17.22;77.11
80118;BME280;69424;48.770;-1.564;2023-07-24T02:46:16;100568.98;;;17.21;77.17
80118;BME280;69424;48.770;-1.564;2023-07-24T02:46:49;100570.43;;;17.20;77.02
80118;BME280;69424;48.770;-1.564;2023-07-24T02:47:22;100566.88;;;17.19;76.98
80118;BME280;69424;48.770;-1.564;2023-07-24T02:47:56;100565.45;;;17.18;77.02
80118;BME280;69424;48.770;-1.564;2023-07-24T02:48:28;100568.50;;;17.17;77.21
80118;BME280;69424;48.770;-1.564;2023-07-24T02:49:02;100569.78;;;17.16;77.40
80118;BME280;69424;48.770;-1.564;2023-07-24T02:49:35;100571.05;;;17.16;77.36
80118;BME280;69424;48.770;-1.564;2023-07-24T02:50:08;100570.88;;;17.16;77.08
80118;BME280;69424;48.770;-1.564;2023-07-24T02:50:41;100565.55;;;17.15;77.15
80118;BME280;69424;48.770;-1.564;2023-07-24T02:51:14;100569.50;;;17.13;77.34
80118;BME280;69424;48.770;-1.564;2023-07-24T02:51:46;100567.90;;;17.12;77.32
80118;BME280;69424;48.770;-1.564;2023-07-24T02:52:19;100569.89;;;17.13;77.43
80118;BME280;69424;48.770;-1.564;2023-07-24T02:52:52;100568.64;;;17.11;77.31
80118;BME280;69424;48.770;-1.564;2023-07-24T02:53:25;100569.02;;;17.11;77.32
80118;BME280;69424;48.770;-1.564;2023-07-24T02:53:58;100572.62;;;17.10;77.18
80118;BME280;69424;48.770;-1.564;2023-07-24T02:54:31;100570.86;;;17.08;77.26
80118;BME280;69424;48.770;-1.564;2023-07-24T02:55:04;100572.30;;;17.07;77.22
80118;BME280;69424;48.770;-1.564;2023-07-24T02:55:42;100574.84;;;17.06;77.19
80118;BME280;69424;48.770;-1.564;2023-07-24T02:56:15;100570.92;;;17.05;77.46
80118;BME280;69424;48.770;-1.564;2023-07-24T02:56:48;100569.34;;;17.04;77.42
80118;BME280;69424;48.770;-1.564;2023-07-24T02:57:21;100569.70;;;17.04;77.51
80118;BME280;69424;48.770;-1.564;2023-07-24T02:57:53;100574.52;;;17.03;77.38
80118;BME280;69424;48.770;-1.564;2023-07-24T02:58:27;100576.84;;;17.03;77.67
80118;BME280;69424;48.770;-1.564;2023-07-24T02:59:00;100575.40;;;17.04;77.74